Time;durP1;ratioP1;P1;durP2;ratioP2;P2;SDS_P1;SDS_P2;PMS_P1;PMS_P2;Temp;Humidity;BMP_temperature;BMP_pressure;BME280_temperature;BME280_humidity;BME280_pressure;Samples;Min_cycle;Max_cycle;Signal;HPM_P1;HPM_P2
2022/05/26 00:01:18;;;;;;;0.40;0.40;;;15.00;99.90;;;;;;4957053;29;20043;-74
2022/05/26 00:03:45;;;;;;;1.75;0.50;;;15.00;99.90;;;;;;4956831;29;20320;-74
2022/05/26 00:06:15;;;;;;;1.00;0.52;;;15.00;99.90;;;;;;4957046;29;20055;-74
2022/05/26 00:08:41;;;;;;;0.55;0.55;;;15.00;99.90;;;;;;4956698;29;20111;-73
2022/05/26 00:11:10;;;;;;;1.13;0.70;;;14.90;99.90;;;;;;4956704;29;20503;-72
2022/05/26 00:13:38;;;;;;;0.80;0.60;;;14.90;99.90;;;;;;4956631;29;20074;-72
2022/05/26 00:16:05;;;;;;;1.92;1.05;;;14.90;99.90;;;;;;4956948;29;20051;-73
2022/05/26 00:18:31;;;;;;;2.45;0.95;;;14.90;99.90;;;;;;4956319;29;20031;-73
2022/05/26 00:20:56;;;;;;;0.55;0.52;;;14.90;99.90;;;;;;4956467;29;20338;-73
2022/05/26 00:23:22;;;;;;;0.50;0.50;;;14.90;99.90;;;;;;4956090;29;20050;-74
2022/05/26 00:25:48;;;;;;;0.50;0.50;;;14.90;99.90;;;;;;4956697;29;20038;-73
2022/05/26 00:28:13;;;;;;;0.43;0.43;;;14.90;99.90;;;;;;4956866;29;20147;-73
2022/05/26 00:30:39;;;;;;;0.50;0.50;;;14.90;99.90;;;;;;4956545;29;20110;-73
2022/05/26 00:33:07;;;;;;;2.88;0.63;;;14.80;99.90;;;;;;4956616;29;20410;-73
2022/05/26 00:35:36;;;;;;;0.57;0.55;;;14.80;99.90;;;;;;4956069;29;20023;-73
2022/05/26 00:38:06;;;;;;;1.13;0.73;;;14.80;99.90;;;;;;4956124;28;20557;-73
2022/05/26 00:40:32;;;;;;;0.70;0.70;;;14.80;99.90;;;;;;4955912;29;20039;-75
2022/05/26 00:42:59;;;;;;;0.60;0.60;;;14.80;99.90;;;;;;4956090;29;20047;-74
2022/05/26 00:45:31;;;;;;;1.92;0.68;;;14.80;99.90;;;;;;4955978;29;20129;-74
2022/05/26 00:47:57;;;;;;;2.13;1.00;;;14.80;99.90;;;;;;4956373;29;20028;-72
2022/05/26 00:50:26;;;;;;;0.60;0.60;;;14.80;99.90;;;;;;4956049;29;20138;-74
2022/05/26 00:52:58;;;;;;;0.73;0.73;;;14.70;99.90;;;;;;4956258;29;20177;-73
2022/05/26 00:55:31;;;;;;;0.75;0.65;;;14.70;99.90;;;;;;4938699;29;20121;-75
2022/05/26 00:58:09;;;;;;;0.85;0.70;;;14.70;99.90;;;;;;4955711;29;20037;-74
2022/05/26 01:00:37;;;;;;;0.80;0.60;;;14.70;99.90;;;;;;4936472;29;20381;-74
2022/05/26 01:03:30;;;;;;;0.73;0.60;;;14.70;99.90;;;;;;4937029;29;20032;-74
2022/05/26 01:06:13;;;;;;;0.75;0.70;;;14.70;99.90;;;;;;4953523;29;20448;-74
2022/05/26 01:08:48;;;;;;;1.15;0.70;;;14.70;99.90;;;;;;4955591;29;20035;-73
2022/05/26 01:11:14;;;;;;;1.08;0.70;;;14.70;99.90;;;;;;4956116;29;20035;-73
2022/05/26 01:13:46;;;;;;;0.70;0.60;;;14.70;99.90;;;;;;4955672;29;20042;-73
2022/05/26 01:16:23;;;;;;;0.85;0.60;;;14.70;99.90;;;;;;4938702;29;20028;-73
2022/05/26 01:18:57;;;;;;;1.17;0.70;;;14.70;99.90;;;;;;4955214;29;20031;-73
2022/05/26 01:22:02;;;;;;;0.52;0.52;;;14.70;99.90;;;;;;4955652;29;20508;-73
2022/05/26 01:24:39;;;;;;;1.00;0.60;;;14.70;99.90;;;;;;4843101;29;20090;-75
2022/05/26 01:27:27;;;;;;;0.60;0.60;;;14.70;99.90;;;;;;4943282;29;20035;-72
2022/05/26 01:30:24;;;;;;;0.55;0.55;;;14.70;99.90;;;;;;4955606;29;20031;-73
2022/05/26 01:33:11;;;;;;;0.40;0.40;;;14.70;99.90;;;;;;4954979;29;20130;-72
2022/05/26 01:35:50;;;;;;;0.90;0.60;;;14.70;99.90;;;;;;4954637;29;20027;-73
2022/05/26 01:38:24;;;;;;;0.65;0.60;;;14.70;99.90;;;;;;4955478;29;20097;-73
2022/05/26 01:41:05;;;;;;;0.60;0.60;;;14.70;99.90;;;;;;4954759;29;20079;-73
2022/05/26 01:44:00;;;;;;;0.60;0.60;;;14.70;99.90;;;;;;4954725;29;20098;-74
2022/05/26 01:46:41;;;;;;;0.70;0.60;;;14.70;99.90;;;;;;4955302;29;20110;-73
2022/05/26 01:49:37;;;;;;;1.45;0.63;;;14.70;99.90;;;;;;4955143;28;20027;-73
2022/05/26 01:52:11;;;;;;;0.45;0.45;;;14.70;99.90;;;;;;4955377;29;20137;-73
2022/05/26 01:54:44;;;;;;;0.50;0.50;;;14.70;99.90;;;;;;4954595;29;20082;-73
2022/05/26 01:57:15;;;;;;;0.90;0.80;;;14.70;99.90;;;;;;4955234;29;20027;-72
2022/05/26 01:59:51;;;;;;;1.17;0.70;;;14.70;99.90;;;;;;4954390;29;20046;-72
2022/05/26 02:02:25;;;;;;;0.70;0.70;;;14.60;99.90;;;;;;4953758;29;20031;-73
2022/05/26 02:05:13;;;;;;;1.08;0.52;;;14.70;99.90;;;;;;4937542;29;20063;-73
2022/05/26 02:07:49;;;;;;;0.68;0.60;;;14.70;99.90;;;;;;4954354;29;20110;-73
2022/05/26 02:10:44;;;;;;;0.50;0.50;;;14.70;99.90;;;;;;4954975;29;20338;-73
2022/05/26 02:13:17;;;;;;;1.65;0.73;;;14.60;99.90;;;;;;4919781;29;20062;-72
2022/05/26 02:15:56;;;;;;;0.55;0.55;;;14.60;99.90;;;;;;4954324;29;20031;-73
2022/05/26 02:18:28;;;;;;;0.43;0.43;;;14.60;99.90;;;;;;4955004;29;20452;-74
2022/05/26 02:21:03;;;;;;;0.65;0.60;;;14.60;99.90;;;;;;4954319;29;20031;-72
2022/05/26 02:23:44;;;;;;;0.40;0.40;;;14.60;99.90;;;;;;4954540;29;20051;-72
2022/05/26 02:26:11;;;;;;;0.70;0.70;;;14.60;99.90;;;;;;4954551;29;20031;-72
2022/05/26 02:31:25;;;;;;;0.75;0.60;;;14.70;99.90;;;;;;4954616;29;20102;-72
2022/05/26 02:34:00;;;;;;;0.80;0.65;;;14.70;99.90;;;;;;4954066;29;20207;-73
2022/05/26 02:36:30;;;;;;;1.27;0.60;;;14.70;99.90;;;;;;4954402;29;20037;-73
2022/05/26 02:38:56;;;;;;;0.60;0.60;;;14.70;99.90;;;;;;4953971;29;20031;-73
2022/05/26 02:41:23;;;;;;;0.52;0.52;;;14.70;99.90;;;;;;4954162;29;20039;-74
2022/05/26 02:43:50;;;;;;;0.50;0.50;;;14.70;99.90;;;;;;4953341;29;20054;-74
2022/05/26 02:46:28;;;;;;;0.55;0.55;;;14.70;99.90;;;;;;4953871;29;20460;-73
2022/05/26 02:49:02;;;;;;;0.60;0.55;;;14.70;99.90;;;;;;4936378;29;20520;-73
2022/05/26 02:51:50;;;;;;;0.32;0.32;;;14.70;99.90;;;;;;4954282;29;20054;-73
2022/05/26 02:54:40;;;;;;;0.52;0.47;;;14.70;99.90;;;;;;4954266;29;20372;-73
2022/05/26 02:57:35;;;;;;;0.95;0.65;;;14.80;99.90;;;;;;4953818;29;20023;-73
2022/05/26 03:00:09;;;;;;;1.10;0.70;;;14.80;99.90;;;;;;4953745;29;20126;-73
2022/05/26 03:02:43;;;;;;;0.60;0.60;;;14.80;99.90;;;;;;4953344;29;20019;-74
2022/05/26 03:05:34;;;;;;;0.75;0.60;;;14.80;99.90;;;;;;4954050;29;20046;-73
2022/05/26 03:08:01;;;;;;;0.73;0.73;;;14.80;99.90;;;;;;4953560;29;20054;-72
2022/05/26 03:10:30;;;;;;;0.60;0.60;;;14.80;99.90;;;;;;4953870;29;20039;-73
2022/05/26 03:12:59;;;;;;;0.57;0.57;;;14.80;99.90;;;;;;4952694;29;20031;-73
2022/05/26 03:15:26;;;;;;;0.60;0.60;;;14.80;99.90;;;;;;4936777;29;20030;-73
2022/05/26 03:17:52;;;;;;;0.70;0.68;;;14.80;99.90;;;;;;4953354;29;20038;-72
2022/05/26 03:20:18;;;;;;;0.70;0.43;;;14.80;99.90;;;;;;4953913;29;20110;-72
2022/05/26 03:22:43;;;;;;;2.58;1.45;;;14.80;99.90;;;;;;4952931;29;20359;-75
2022/05/26 03:25:09;;;;;;;1.60;0.68;;;14.90;99.90;;;;;;4953791;29;20086;-72
2022/05/26 03:27:35;;;;;;;0.93;0.85;;;14.90;99.90;;;;;;4953616;29;20031;-73
2022/05/26 03:30:01;;;;;;;0.70;0.70;;;14.90;99.90;;;;;;4953399;29;20046;-73
2022/05/26 03:32:26;;;;;;;0.68;0.68;;;14.90;99.90;;;;;;4953641;29;20038;-73
2022/05/26 03:43:07;;;;;;;0.95;0.60;;;15.00;99.90;;;;;;4953454;29;20070;-73
2022/05/26 03:45:34;;;;;;;0.70;0.70;;;15.00;99.90;;;;;;4953330;29;20027;-73
2022/05/26 03:48:01;;;;;;;1.65;0.50;;;15.00;99.90;;;;;;4935768;29;20539;-72
2022/05/26 03:50:27;;;;;;;0.60;0.60;;;15.10;99.90;;;;;;4953446;29;20367;-74
2022/05/26 03:52:53;;;;;;;1.02;0.60;;;15.10;99.90;;;;;;4952751;29;20385;-73
2022/05/26 03:55:20;;;;;;;0.60;0.60;;;15.10;99.90;;;;;;4953640;29;20082;-73
2022/05/26 03:57:46;;;;;;;0.57;0.50;;;15.20;99.90;;;;;;4952935;29;20480;-74
2022/05/26 04:00:13;;;;;;;0.50;0.50;;;15.20;99.90;;;;;;4953658;29;20110;-72
2022/05/26 04:02:39;;;;;;;1.17;0.60;;;15.20;99.90;;;;;;4953126;29;20351;-74
2022/05/26 04:05:06;;;;;;;0.55;0.43;;;15.30;99.90;;;;;;4953435;29;20090;-72
2022/05/26 04:07:32;;;;;;;1.05;0.47;;;15.30;99.90;;;;;;4953205;29;20035;-73
2022/05/26 04:09:58;;;;;;;0.50;0.50;;;15.40;99.90;;;;;;4952764;29;20042;-73
2022/05/26 04:12:24;;;;;;;0.98;0.88;;;15.50;99.90;;;;;;4953031;28;20035;-73
2022/05/26 04:14:50;;;;;;;0.60;0.60;;;15.50;99.90;;;;;;4938717;29;20114;-73
2022/05/26 04:17:15;;;;;;;0.47;0.47;;;15.60;99.90;;;;;;4956800;29;20087;-73
2022/05/26 04:19:41;;;;;;;0.43;0.40;;;15.60;99.90;;;;;;4956210;29;20421;-74
2022/05/26 04:22:16;;;;;;;0.77;0.60;;;15.70;99.90;;;;;;4957053;29;20027;-72
2022/05/26 04:24:47;;;;;;;0.68;0.55;;;15.70;99.90;;;;;;4956300;29;20174;-74
2022/05/26 04:27:13;;;;;;;0.40;0.40;;;15.80;99.50;;;;;;4956678;29;20043;-72
2022/05/26 04:29:39;;;;;;;0.32;0.32;;;15.90;99.30;;;;;;4955433;29;20043;-73
2022/05/26 04:32:05;;;;;;;0.45;0.30;;;15.90;99.10;;;;;;4956214;29;20027;-72
2022/05/26 04:34:31;;;;;;;1.08;0.50;;;16.00;98.20;;;;;;4956558;29;20034;-72
2022/05/26 04:36:56;;;;;;;1.00;0.57;;;16.10;97.60;;;;;;4956010;29;20038;-73
2022/05/26 04:39:22;;;;;;;0.60;0.60;;;16.20;97.20;;;;;;4956412;29;20027;-73
2022/05/26 04:41:48;;;;;;;0.40;0.40;;;16.30;96.70;;;;;;4956263;29;20061;-73
2022/05/26 04:44:16;;;;;;;0.60;0.60;;;16.40;96.20;;;;;;4956428;29;20090;-74
2022/05/26 04:46:42;;;;;;;0.40;0.40;;;16.60;95.50;;;;;;4956026;29;20035;-75
2022/05/26 04:49:09;;;;;;;0.38;0.38;;;16.70;95.00;;;;;;4956173;29;20032;-74
2022/05/26 04:51:36;;;;;;;3.05;0.50;;;16.90;94.00;;;;;;4956262;29;20388;-74
2022/05/26 04:54:04;;;;;;;0.60;0.40;;;17.10;93.50;;;;;;4955735;29;20726;-72
2022/05/26 04:56:30;;;;;;;0.50;0.50;;;17.20;92.80;;;;;;4956159;29;20035;-72
2022/05/26 04:58:55;;;;;;;0.32;0.32;;;17.40;92.20;;;;;;4955688;29;20028;-73
2022/05/26 05:01:22;;;;;;;0.40;0.40;;;17.70;91.40;;;;;;4955385;29;20046;-73
2022/05/26 05:03:48;;;;;;;0.63;0.52;;;17.90;90.70;;;;;;4955574;29;20118;-73
2022/05/26 05:06:15;;;;;;;0.68;0.63;;;18.10;90.00;;;;;;4955869;29;20428;-73
2022/05/26 05:08:42;;;;;;;0.50;0.50;;;18.40;88.20;;;;;;4955211;29;20059;-73
2022/05/26 05:11:08;;;;;;;0.40;0.40;;;18.80;87.10;;;;;;4955432;29;20031;-73
2022/05/26 05:13:34;;;;;;;0.52;0.52;;;19.40;84.10;;;;;;4960410;28;20023;-74
2022/05/26 05:16:10;;;;;;;0.50;0.50;;;20.00;79.90;;;;;;4961487;28;20035;-73
2022/05/26 05:18:36;;;;;;;0.43;0.43;;;20.40;75.00;;;;;;4957226;28;20027;-74
2022/05/26 05:21:09;;;;;;;0.63;0.40;;;20.80;72.90;;;;;;4954972;28;20065;-72
2022/05/26 05:23:42;;;;;;;0.30;0.30;;;21.50;71.70;;;;;;4955783;28;20023;-74
2022/05/26 05:26:13;;;;;;;0.40;0.40;;;21.80;68.90;;;;;;4936547;29;20036;-74
2022/05/26 05:28:42;;;;;;;0.40;0.40;;;22.40;65.80;;;;;;4942302;29;20464;-73
2022/05/26 05:31:19;;;;;;;0.40;0.40;;;23.20;62.50;;;;;;4954755;29;20046;-73
2022/05/26 05:33:52;;;;;;;0.43;0.40;;;24.80;59.00;;;;;;4955363;29;20070;-75
2022/05/26 05:36:27;;;;;;;0.40;0.40;;;26.20;54.80;;;;;;4955114;29;20023;-73
2022/05/26 05:38:54;;;;;;;0.40;0.40;;;27.00;51.40;;;;;;4954187;29;20020;-74
2022/05/26 05:41:20;;;;;;;0.50;0.50;;;27.80;48.00;;;;;;4955220;29;20035;-73
2022/05/26 05:43:47;;;;;;;0.50;0.50;;;28.40;46.60;;;;;;4954753;29;20093;-74
2022/05/26 05:46:14;;;;;;;0.40;0.40;;;29.20;45.80;;;;;;4955162;29;20027;-73
2022/05/26 05:48:43;;;;;;;0.30;0.30;;;29.60;43.90;;;;;;4955537;29;20468;-74
2022/05/26 05:51:10;;;;;;;0.30;0.30;;;29.90;43.10;;;;;;4955189;29;20388;-74
2022/05/26 05:53:36;;;;;;;0.38;0.38;;;30.30;41.40;;;;;;4954827;29;20066;-75
2022/05/26 05:56:01;;;;;;;0.50;0.50;;;30.50;40.60;;;;;;4954240;29;20503;-74
2022/05/26 05:58:27;;;;;;;0.40;0.40;;;31.10;41.00;;;;;;4953741;29;20077;-73
2022/05/26 06:00:53;;;;;;;0.32;0.30;;;31.20;38.60;;;;;;4954345;29;20035;-74
2022/05/26 06:03:18;;;;;;;1.05;0.60;;;31.60;37.90;;;;;;4937818;29;20035;-75
2022/05/26 06:05:44;;;;;;;0.30;0.30;;;31.20;37.80;;;;;;4937446;29;20027;-73
2022/05/26 06:08:10;;;;;;;0.40;0.40;;;31.60;37.50;;;;;;4954110;29;20027;-75
2022/05/26 06:10:36;;;;;;;0.40;0.40;;;31.90;37.90;;;;;;4954648;29;20031;-73
2022/05/26 06:13:02;;;;;;;0.40;0.40;;;31.90;36.90;;;;;;4954172;29;20023;-74
2022/05/26 06:15:27;;;;;;;0.30;0.30;;;32.20;37.60;;;;;;4954504;29;20526;-75
2022/05/26 06:17:53;;;;;;;0.38;0.35;;;32.00;36.30;;;;;;4954186;29;20046;-74
2022/05/26 06:20:19;;;;;;;0.25;0.25;;;31.80;36.60;;;;;;4954357;29;20042;-74
2022/05/26 06:22:47;;;;;;;0.45;0.40;;;31.70;36.40;;;;;;4954235;29;20082;-73
2022/05/26 06:25:16;;;;;;;0.30;0.30;;;30.80;37.00;;;;;;4954023;29;20047;-73
2022/05/26 06:30:30;;;;;;;1.00;0.40;;;28.80;39.80;;;;;;4935297;29;20054;-73
2022/05/26 06:38:39;;;;;;;0.30;0.30;;;26.90;43.60;;;;;;4935034;29;20042;-73
2022/05/26 06:43:52;;;;;;;0.30;0.30;;;28.10;41.80;;;;;;4953421;29;20093;-73
2022/05/26 06:46:19;;;;;;;0.47;0.40;;;28.00;41.60;;;;;;4954141;29;20061;-73
2022/05/26 06:48:45;;;;;;;0.40;0.40;;;28.20;40.60;;;;;;4954109;29;20082;-73
2022/05/26 06:51:11;;;;;;;0.30;0.30;;;28.10;40.80;;;;;;4936265;29;20105;-74
2022/05/26 06:53:38;;;;;;;0.40;0.40;;;28.20;40.20;;;;;;4954161;29;20467;-74
2022/05/26 06:56:05;;;;;;;0.30;0.30;;;28.10;40.90;;;;;;4953542;29;20095;-75
2022/05/26 06:58:31;;;;;;;1.38;0.40;;;28.00;41.20;;;;;;4953848;29;20027;-73
2022/05/26 07:00:57;;;;;;;0.40;0.40;;;28.10;40.90;;;;;;4953121;29;20039;-75
2022/05/26 07:03:23;;;;;;;0.50;0.50;;;27.70;40.90;;;;;;4953485;28;20031;-74
2022/05/26 07:05:50;;;;;;;0.40;0.40;;;27.80;41.20;;;;;;4953556;29;20394;-74
2022/05/26 07:08:16;;;;;;;0.68;0.60;;;27.60;41.00;;;;;;4953032;29;20058;-74
2022/05/26 07:10:45;;;;;;;0.30;0.30;;;27.60;41.40;;;;;;4953614;29;20045;-74
2022/05/26 07:13:10;;;;;;;0.52;0.50;;;27.40;41.70;;;;;;4953445;29;20036;-74
2022/05/26 07:15:36;;;;;;;0.70;0.60;;;27.30;41.60;;;;;;4953787;29;20118;-74
2022/05/26 07:18:05;;;;;;;0.73;0.30;;;27.20;42.00;;;;;;4953047;29;20038;-75
2022/05/26 07:20:31;;;;;;;0.38;0.38;;;26.80;42.40;;;;;;4953186;29;20065;-75
2022/05/26 07:22:56;;;;;;;1.60;0.50;;;26.30;44.10;;;;;;4953127;29;20066;-76
2022/05/26 07:25:22;;;;;;;0.55;0.50;;;26.10;44.00;;;;;;4953719;29;20110;-74
2022/05/26 07:27:47;;;;;;;0.68;0.50;;;25.90;44.40;;;;;;4953465;29;20027;-74
2022/05/26 07:30:13;;;;;;;0.40;0.40;;;26.20;45.20;;;;;;4951632;29;20097;-74
2022/05/26 07:32:39;;;;;;;0.40;0.40;;;26.40;44.40;;;;;;4953305;29;20023;-74
2022/05/26 07:35:05;;;;;;;0.43;0.40;;;26.20;44.80;;;;;;4952908;29;20102;-73
2022/05/26 07:42:59;;;;;;;0.40;0.40;;;26.90;43.70;;;;;;4953019;29;20356;-75
2022/05/26 07:45:24;;;;;;;0.50;0.40;;;27.10;43.20;;;;;;4953969;29;20035;-75
2022/05/26 07:47:50;;;;;;;0.35;0.35;;;27.30;42.20;;;;;;4953835;28;20079;-74
2022/05/26 07:50:20;;;;;;;0.50;0.40;;;27.20;43.30;;;;;;4956648;29;20035;-74
2022/05/26 07:52:47;;;;;;;0.30;0.30;;;27.30;42.70;;;;;;4956945;29;20030;-74
2022/05/26 07:55:13;;;;;;;0.50;0.40;;;27.50;42.70;;;;;;4956462;29;20383;-75
2022/05/26 07:57:39;;;;;;;0.30;0.30;;;27.90;41.60;;;;;;4956624;29;20042;-76
2022/05/26 08:00:06;;;;;;;0.50;0.25;;;27.90;41.20;;;;;;4956097;29;20039;-75
2022/05/26 08:02:31;;;;;;;0.30;0.30;;;27.90;40.50;;;;;;4956480;29;20444;-75
2022/05/26 08:04:57;;;;;;;0.20;0.20;;;27.80;41.20;;;;;;4956238;29;20106;-76
2022/05/26 08:07:23;;;;;;;0.63;0.30;;;27.80;41.70;;;;;;4957054;29;20028;-75
2022/05/26 08:09:49;;;;;;;0.10;0.10;;;27.90;41.10;;;;;;4955564;29;20385;-75
2022/05/26 08:12:15;;;;;;;0.77;0.30;;;28.00;41.10;;;;;;4956220;29;20291;-75
2022/05/26 08:14:43;;;;;;;0.20;0.20;;;27.60;41.50;;;;;;4956557;29;20054;-75
2022/05/26 08:17:11;;;;;;;0.50;0.30;;;27.30;41.40;;;;;;4954896;29;20483;-76
2022/05/26 08:19:38;;;;;;;1.02;0.45;;;26.90;41.60;;;;;;4956383;29;20046;-75
2022/05/26 08:22:04;;;;;;;0.22;0.22;;;26.70;42.20;;;;;;4938839;29;20038;-75
2022/05/26 08:24:30;;;;;;;0.38;0.38;;;26.40;41.90;;;;;;4955061;29;20383;-75
2022/05/26 08:26:56;;;;;;;0.20;0.20;;;25.90;43.00;;;;;;4956409;29;20038;-75
2022/05/26 08:29:22;;;;;;;0.45;0.45;;;25.80;43.60;;;;;;4955862;29;20042;-75
2022/05/26 08:31:48;;;;;;;0.32;0.32;;;25.70;43.00;;;;;;4956274;29;20177;-75
2022/05/26 08:34:14;;;;;;;0.40;0.35;;;25.50;43.70;;;;;;4955668;29;20110;-75
2022/05/26 08:36:39;;;;;;;0.60;0.50;;;25.30;43.90;;;;;;4955915;29;20054;-75
2022/05/26 08:39:05;;;;;;;0.40;0.38;;;25.20;44.60;;;;;;4955676;29;20019;-75
2022/05/26 08:41:39;;;;;;;1.25;0.60;;;25.20;44.80;;;;;;4956767;28;20162;-75
2022/05/26 08:44:30;;;;;;;0.98;0.65;;;24.90;44.80;;;;;;4960475;28;20055;-75
2022/05/26 08:47:07;;;;;;;0.45;0.45;;;24.60;45.20;;;;;;4962927;28;20027;-75
2022/05/26 08:50:02;;;;;;;0.30;0.30;;;24.30;45.90;;;;;;4950179;28;20043;-75
2022/05/26 08:52:35;;;;;;;0.45;0.40;;;24.30;47.20;;;;;;4943710;28;20048;-74
2022/05/26 08:55:04;;;;;;;0.50;0.45;;;24.20;47.90;;;;;;4955494;29;20170;-76
2022/05/26 08:57:35;;;;;;;0.60;0.38;;;24.10;48.00;;;;;;4954729;29;20027;-74
2022/05/26 09:00:01;;;;;;;0.30;0.30;;;24.10;48.30;;;;;;4954593;28;20047;-76
2022/05/26 09:02:33;;;;;;;0.40;0.30;;;24.10;48.50;;;;;;4955128;28;20151;-75
2022/05/26 09:05:02;;;;;;;0.50;0.50;;;24.00;47.00;;;;;;4956018;29;20035;-76
2022/05/26 09:13:14;;;;;;;0.55;0.43;;;23.80;48.00;;;;;;4956413;29;20062;-75
2022/05/26 09:15:40;;;;;;;0.52;0.40;;;23.80;49.60;;;;;;4939352;29;20441;-76
2022/05/26 09:18:15;;;;;;;0.40;0.40;;;23.80;48.30;;;;;;4955487;29;20027;-75
2022/05/26 09:20:42;;;;;;;0.35;0.35;;;23.80;48.40;;;;;;4955665;29;20043;-75
2022/05/26 09:23:07;;;;;;;0.40;0.40;;;23.80;48.20;;;;;;4955393;29;20059;-77
2022/05/26 09:25:44;;;;;;;0.80;0.47;;;23.70;48.30;;;;;;4955668;29;20031;-76
2022/05/26 09:28:10;;;;;;;0.40;0.40;;;23.70;48.70;;;;;;4954351;29;20062;-75
2022/05/26 09:30:37;;;;;;;0.82;0.30;;;23.70;49.00;;;;;;4954252;29;20031;-75
2022/05/26 09:33:17;;;;;;;0.88;0.50;;;23.70;48.40;;;;;;4953775;29;20072;-75
2022/05/26 09:35:43;;;;;;;0.52;0.50;;;23.80;48.90;;;;;;4953565;29;20380;-75
2022/05/26 09:38:16;;;;;;;0.47;0.47;;;23.80;47.30;;;;;;4953039;29;20083;-74
2022/05/26 09:40:45;;;;;;;0.43;0.32;;;23.80;47.40;;;;;;4954907;29;20151;-74
2022/05/26 09:43:20;;;;;;;0.43;0.43;;;23.80;47.10;;;;;;4952811;29;20086;-74
2022/05/26 09:45:55;;;;;;;0.65;0.60;;;23.70;46.80;;;;;;4954970;29;20092;-75
2022/05/26 09:48:35;;;;;;;0.50;0.50;;;23.70;47.40;;;;;;4954824;29;20027;-76
2022/05/26 09:51:04;;;;;;;;;;;23.70;47.50;;;;;;4955184;29;20023;-74
2022/05/26 09:53:45;;;;;;;0.60;0.60;;;23.70;47.50;;;;;;4955089;29;19906;-74
2022/05/26 09:56:25;;;;;;;2.10;0.55;;;23.70;47.70;;;;;;4954561;29;20023;-75
2022/05/26 09:58:51;;;;;;;0.40;0.40;;;23.80;48.10;;;;;;4954726;29;20473;-74
2022/05/26 10:01:29;;;;;;;0.70;0.57;;;23.90;48.70;;;;;;4954450;29;20178;-74
2022/05/26 10:04:38;;;;;;;0.77;0.73;;;24.00;48.60;;;;;;4954753;29;20023;-75
2022/05/26 10:07:22;;;;;;;0.65;0.60;;;24.10;48.40;;;;;;4954166;29;20082;-76
2022/05/26 10:09:52;;;;;;;0.45;0.45;;;24.00;47.60;;;;;;4954680;29;20050;-74
2022/05/26 10:12:20;;;;;;;0.85;0.60;;;24.00;47.70;;;;;;4953347;29;20055;-75
2022/05/26 10:15:03;;;;;;;0.70;0.70;;;24.00;47.40;;;;;;4954455;29;20023;-74
2022/05/26 10:17:48;;;;;;;1.60;0.70;;;24.00;47.90;;;;;;4954519;29;20078;-74
2022/05/26 10:20:52;;;;;;;0.50;0.50;;;24.00;48.30;;;;;;4954150;29;20105;-76
2022/05/26 10:23:43;;;;;;;5.18;0.60;;;24.00;48.00;;;;;;4939456;29;20032;-75
2022/05/26 10:26:32;;;;;;;0.60;0.60;;;24.00;48.30;;;;;;4954186;29;20046;-76
2022/05/26 10:29:49;;;;;;;0.32;0.32;;;24.00;47.60;;;;;;4954306;29;20493;-75
2022/05/26 10:32:51;;;;;;;0.52;0.52;;;24.00;46.90;;;;;;4945562;29;20040;-74
2022/05/26 10:35:31;;;;;;;0.50;0.50;;;23.90;46.70;;;;;;4953441;29;20472;-76
2022/05/26 10:37:57;;;;;;;1.23;0.75;;;23.90;45.10;;;;;;4953996;29;20027;-74
2022/05/26 10:41:00;;;;;;;0.55;0.50;;;23.90;45.50;;;;;;4954319;29;20098;-75
2022/05/26 10:43:42;;;;;;;0.50;0.50;;;23.90;45.80;;;;;;4951518;29;20069;-76
2022/05/26 10:46:09;;;;;;;0.40;0.40;;;23.80;46.00;;;;;;4954170;29;20463;-80
2022/05/26 10:48:51;;;;;;;0.38;0.30;;;23.90;46.10;;;;;;4953861;29;20094;-75
2022/05/26 10:51:16;;;;;;;0.63;0.63;;;23.80;44.90;;;;;;4960455;28;20035;-75
2022/05/26 10:53:56;;;;;;;0.50;0.50;;;23.90;45.40;;;;;;4956862;28;20031;-75
2022/05/26 10:56:52;;;;;;;0.60;0.60;;;24.00;45.20;;;;;;4952725;28;20121;-76
2022/05/26 10:59:34;;;;;;;0.60;0.50;;;24.00;44.00;;;;;;4934202;29;20356;-74
2022/05/26 11:02:12;;;;;;;0.47;0.47;;;24.10;44.40;;;;;;4934658;29;20032;-74
2022/05/26 11:04:47;;;;;;;0.80;0.50;;;24.20;44.10;;;;;;4934505;29;20126;-75
2022/05/26 11:07:26;;;;;;;0.40;0.40;;;24.20;42.60;;;;;;4934214;29;20055;-75
2022/05/26 11:10:11;;;;;;;0.30;0.30;;;24.20;41.90;;;;;;4934749;29;20031;-74
2022/05/26 11:12:43;;;;;;;0.60;0.60;;;24.10;43.90;;;;;;4934255;29;20083;-75
2022/05/26 11:18:19;;;;;;;1.05;0.38;;;24.20;43.50;;;;;;4934436;29;20094;-75
2022/05/26 11:20:56;;;;;;;0.30;0.30;;;24.20;43.60;;;;;;4917025;29;20036;-75
2022/05/26 11:23:27;;;;;;;0.68;0.40;;;24.30;42.50;;;;;;4938828;29;20031;-75
2022/05/26 11:26:06;;;;;;;1.05;0.55;;;24.20;41.30;;;;;;4940888;29;20435;-75
2022/05/26 11:28:41;;;;;;;0.60;0.43;;;24.20;42.10;;;;;;4946791;28;20019;-75
2022/05/26 11:37:30;;;;;;;0.73;0.50;;;24.10;42.20;;;;;;4956985;29;20046;-77
2022/05/26 11:40:03;;;;;;;0.50;0.50;;;24.00;41.80;;;;;;4959583;28;20157;-75
2022/05/26 11:42:33;;;;;;;0.60;0.40;;;24.00;42.50;;;;;;4959108;29;20038;-75
2022/05/26 11:45:08;;;;;;;0.25;0.25;;;24.00;43.20;;;;;;4959735;28;20043;-74
2022/05/26 11:47:46;;;;;;;0.60;0.52;;;23.90;42.50;;;;;;4959273;29;20102;-75
2022/05/26 11:50:36;;;;;;;1.02;0.60;;;23.90;43.50;;;;;;4959267;29;20110;-75
2022/05/26 11:53:05;;;;;;;0.40;0.40;;;23.80;44.00;;;;;;4959670;28;20450;-75
2022/05/26 11:55:50;;;;;;;2.85;0.40;;;23.80;44.20;;;;;;4959278;28;20714;-75
2022/05/26 11:58:31;;;;;;;0.55;0.43;;;23.90;44.20;;;;;;4959191;28;20048;-74
2022/05/26 12:01:14;;;;;;;0.40;0.40;;;23.90;44.50;;;;;;4942509;29;20466;-74
2022/05/26 12:03:54;;;;;;;0.47;0.47;;;23.90;43.60;;;;;;4959684;29;20031;-74
2022/05/26 12:06:37;;;;;;;0.45;0.45;;;23.90;43.90;;;;;;4959209;28;20054;-76
2022/05/26 12:09:03;;;;;;;0.45;0.45;;;23.90;43.40;;;;;;4959696;29;20019;-75
2022/05/26 12:11:53;;;;;;;0.88;0.70;;;23.90;43.30;;;;;;4959179;28;20104;-75
2022/05/26 12:14:31;;;;;;;0.50;0.50;;;23.90;43.20;;;;;;4958971;29;20027;-75
2022/05/26 12:17:28;;;;;;;0.40;0.40;;;23.80;42.70;;;;;;4959584;29;20038;-75
2022/05/26 12:19:54;;;;;;;0.98;0.50;;;23.90;43.90;;;;;;4959374;28;20131;-75
2022/05/26 12:22:20;;;;;;;0.77;0.57;;;24.00;44.00;;;;;;4958996;28;20067;-75
2022/05/26 12:24:58;;;;;;;0.55;0.55;;;24.00;42.80;;;;;;4942174;29;20368;-75
2022/05/26 12:27:56;;;;;;;0.95;0.52;;;24.00;42.20;;;;;;4958968;29;20035;-75
2022/05/26 12:30:46;;;;;;;0.77;0.50;;;24.00;43.20;;;;;;4872481;29;20499;-74
2022/05/26 12:33:20;;;;;;;0.50;0.43;;;24.00;43.60;;;;;;4939776;29;20035;-75
2022/05/26 12:36:23;;;;;;;0.82;0.70;;;24.00;44.00;;;;;;4936928;29;20162;-75
2022/05/26 12:39:08;;;;;;;2.38;0.60;;;24.00;42.90;;;;;;4937245;29;20032;-75
2022/05/26 12:42:15;;;;;;;0.40;0.40;;;24.00;43.70;;;;;;4936413;29;20102;-74
2022/05/26 12:45:18;;;;;;;0.60;0.60;;;24.00;44.70;;;;;;4936368;28;20063;-74
2022/05/26 12:48:24;;;;;;;0.98;0.60;;;23.90;44.70;;;;;;4959751;28;20043;-74
2022/05/26 12:50:50;;;;;;;0.55;0.55;;;23.90;44.70;;;;;;4955978;29;20027;-74
2022/05/26 12:53:29;;;;;;;0.60;0.60;;;23.80;44.40;;;;;;4938392;29;20428;-76
2022/05/26 12:56:04;;;;;;;0.73;0.60;;;23.70;44.40;;;;;;4955981;29;20031;-74
2022/05/26 12:58:40;;;;;;;0.60;0.60;;;23.70;44.50;;;;;;4938125;29;20031;-74
2022/05/26 13:01:15;;;;;;;0.50;0.50;;;23.70;45.40;;;;;;4955518;29;20035;-76
2022/05/26 13:03:56;;;;;;;0.50;0.50;;;23.70;45.60;;;;;;4955405;29;20082;-75
2022/05/26 13:06:21;;;;;;;1.38;0.50;;;23.70;45.80;;;;;;4956474;28;20023;-76
2022/05/26 13:09:04;;;;;;;0.50;0.50;;;23.70;44.90;;;;;;4955481;29;20034;-74
2022/05/26 13:11:41;;;;;;;0.47;0.47;;;23.80;44.90;;;;;;4955312;29;20035;-76
2022/05/26 13:14:16;;;;;;;0.47;0.47;;;23.90;44.60;;;;;;4955508;29;20039;-75
2022/05/26 13:16:41;;;;;;;0.32;0.32;;;23.90;45.30;;;;;;4955686;29;20031;-75
2022/05/26 13:19:11;;;;;;;0.40;0.40;;;24.00;46.20;;;;;;4955462;29;20503;-75
2022/05/26 13:21:37;;;;;;;0.65;0.50;;;24.00;46.50;;;;;;4954661;29;20487;-74
2022/05/26 13:24:04;;;;;;;2.47;0.40;;;24.10;45.30;;;;;;4955477;29;20031;-75
2022/05/26 13:26:30;;;;;;;0.30;0.30;;;24.10;44.10;;;;;;4962741;28;20027;-75
2022/05/26 13:28:59;;;;;;;1.20;0.60;;;24.10;43.30;;;;;;4961007;28;20039;-75
2022/05/26 13:34:12;;;;;;;2.38;0.85;;;24.10;43.60;;;;;;4960679;28;20038;-75
2022/05/26 13:36:44;;;;;;;0.40;0.40;;;24.00;42.80;;;;;;4964432;28;20507;-75
2022/05/26 13:39:16;;;;;;;0.98;0.80;;;24.00;42.90;;;;;;4955598;28;20083;-75
2022/05/26 13:41:47;;;;;;;3.40;0.98;;;23.90;43.90;;;;;;4953534;29;20070;-75
2022/05/26 13:44:17;;;;;;;1.00;0.40;;;23.80;44.40;;;;;;4954884;29;20142;-76
2022/05/26 13:46:48;;;;;;;0.57;0.57;;;23.80;44.70;;;;;;4953475;28;20035;-75
2022/05/26 13:49:36;;;;;;;0.55;0.50;;;23.80;43.80;;;;;;4950477;28;20030;-75
2022/05/26 13:52:09;;;;;;;0.55;0.55;;;23.90;44.40;;;;;;4954493;29;20042;-75
2022/05/26 13:54:44;;;;;;;0.50;0.50;;;23.80;43.90;;;;;;4951464;29;20473;-75
2022/05/26 13:57:12;;;;;;;0.68;0.50;;;23.80;44.10;;;;;;4953628;29;20439;-76
2022/05/26 13:59:45;;;;;;;0.50;0.50;;;23.80;44.40;;;;;;4962121;28;20042;-76
2022/05/26 14:02:17;;;;;;;0.68;0.65;;;23.80;43.90;;;;;;4958310;28;20103;-75